sensor_id;sensor_type;location;lat;lon;timestamp;P1;durP1;ratioP1;P2;durP2;ratioP2
2009;SDS011;1008;47.404;8.502;2023-03-03T00:01:03;26.80;;;12.53;;
2009;SDS011;1008;47.404;8.502;2023-03-03T00:03:31;27.40;;;12.10;;
2009;SDS011;1008;47.404;8.502;2023-03-03T00:05:59;42.90;;;14.90;;
2009;SDS011;1008;47.404;8.502;2023-03-03T00:08:27;31.10;;;12.83;;
2009;SDS011;1008;47.404;8.502;2023-03-03T00:10:54;24.00;;;12.03;;
2009;SDS011;1008;47.404;8.502;2023-03-03T00:13:22;34.60;;;13.10;;
2009;SDS011;1008;47.404;8.502;2023-03-03T00:15:50;34.47;;;13.27;;
2009;SDS011;1008;47.404;8.502;2023-03-03T00:18:20;26.90;;;11.83;;
2009;SDS011;1008;47.404;8.502;2023-03-03T00:20:52;28.83;;;12.97;;
2009;SDS011;1008;47.404;8.502;2023-03-03T00:23:25;36.63;;;14.57;;
2009;SDS011;1008;47.404;8.502;2023-03-03T00:25:56;29.73;;;12.97;;
2009;SDS011;1008;47.404;8.502;2023-03-03T00:28:25;30.77;;;12.27;;
2009;SDS011;1008;47.404;8.502;2023-03-03T00:30:55;32.70;;;13.00;;
2009;SDS011;1008;47.404;8.502;2023-03-03T00:33:25;26.77;;;13.40;;
2009;SDS011;1008;47.404;8.502;2023-03-03T00:36:09;46.43;;;17.37;;
2009;SDS011;1008;47.404;8.502;2023-03-03T00:38:54;30.63;;;14.50;;
2009;SDS011;1008;47.404;8.502;2023-03-03T00:41:23;29.83;;;12.90;;
2009;SDS011;1008;47.404;8.502;2023-03-03T00:43:52;36.27;;;11.87;;
2009;SDS011;1008;47.404;8.502;2023-03-03T00:46:20;33.27;;;12.30;;
2009;SDS011;1008;47.404;8.502;2023-03-03T00:48:48;24.03;;;11.97;;
2009;SDS011;1008;47.404;8.502;2023-03-03T00:51:24;42.63;;;14.93;;
2009;SDS011;1008;47.404;8.502;2023-03-03T00:53:54;32.23;;;14.00;;
2009;SDS011;1008;47.404;8.502;2023-03-03T00:56:22;34.07;;;12.87;;
2009;SDS011;1008;47.404;8.502;2023-03-03T00:58:49;36.47;;;13.03;;
2009;SDS011;1008;47.404;8.502;2023-03-03T01:01:16;31.70;;;13.67;;
2009;SDS011;1008;47.404;8.502;2023-03-03T01:03:44;28.63;;;14.00;;
2009;SDS011;1008;47.404;8.502;2023-03-03T01:06:11;39.13;;;15.80;;
2009;SDS011;1008;47.404;8.502;2023-03-03T01:08:39;26.20;;;11.07;;
2009;SDS011;1008;47.404;8.502;2023-03-03T01:11:08;30.17;;;13.33;;
2009;SDS011;1008;47.404;8.502;2023-03-03T01:13:38;34.33;;;14.27;;
2009;SDS011;1008;47.404;8.502;2023-03-03T01:16:07;32.10;;;13.20;;
2009;SDS011;1008;47.404;8.502;2023-03-03T01:18:36;32.97;;;13.73;;
2009;SDS011;1008;47.404;8.502;2023-03-03T01:21:05;33.80;;;11.73;;
2009;SDS011;1008;47.404;8.502;2023-03-03T01:23:33;35.50;;;14.70;;
2009;SDS011;1008;47.404;8.502;2023-03-03T01:26:00;27.40;;;13.20;;
2009;SDS011;1008;47.404;8.502;2023-03-03T01:28:28;32.47;;;14.00;;
2009;SDS011;1008;47.404;8.502;2023-03-03T01:30:58;34.20;;;14.37;;
2009;SDS011;1008;47.404;8.502;2023-03-03T01:33:26;34.30;;;13.60;;
2009;SDS011;1008;47.404;8.502;2023-03-03T01:35:52;37.17;;;15.23;;
2009;SDS011;1008;47.404;8.502;2023-03-03T01:38:19;30.93;;;13.13;;
2009;SDS011;1008;47.404;8.502;2023-03-03T01:40:51;28.87;;;11.70;;
2009;SDS011;1008;47.404;8.502;2023-03-03T01:43:19;34.57;;;14.13;;
2009;SDS011;1008;47.404;8.502;2023-03-03T01:49:01;40.20;;;14.93;;
2009;SDS011;1008;47.404;8.502;2023-03-03T01:51:31;37.17;;;15.50;;
2009;SDS011;1008;47.404;8.502;2023-03-03T01:54:00;30.40;;;12.87;;
2009;SDS011;1008;47.404;8.502;2023-03-03T01:56:29;34.20;;;12.70;;
2009;SDS011;1008;47.404;8.502;2023-03-03T01:58:57;37.73;;;14.07;;
2009;SDS011;1008;47.404;8.502;2023-03-03T02:01:27;34.23;;;13.40;;
2009;SDS011;1008;47.404;8.502;2023-03-03T02:03:56;36.87;;;13.93;;
2009;SDS011;1008;47.404;8.502;2023-03-03T02:06:26;31.03;;;12.67;;
2009;SDS011;1008;47.404;8.502;2023-03-03T02:08:56;27.60;;;12.80;;
2009;SDS011;1008;47.404;8.502;2023-03-03T02:11:27;34.83;;;15.17;;
2009;SDS011;1008;47.404;8.502;2023-03-03T02:13:56;29.17;;;11.87;;
2009;SDS011;1008;47.404;8.502;2023-03-03T02:16:23;32.30;;;12.10;;
2009;SDS011;1008;47.404;8.502;2023-03-03T02:18:50;29.40;;;12.40;;
2009;SDS011;1008;47.404;8.502;2023-03-03T02:21:18;32.97;;;14.80;;
2009;SDS011;1008;47.404;8.502;2023-03-03T02:23:49;39.77;;;15.53;;
2009;SDS011;1008;47.404;8.502;2023-03-03T02:26:23;36.70;;;14.20;;
2009;SDS011;1008;47.404;8.502;2023-03-03T02:28:51;27.97;;;11.47;;
2009;SDS011;1008;47.404;8.502;2023-03-03T02:31:19;32.73;;;13.57;;
2009;SDS011;1008;47.404;8.502;2023-03-03T02:33:47;33.63;;;13.57;;
2009;SDS011;1008;47.404;8.502;2023-03-03T02:36:16;41.30;;;13.97;;
2009;SDS011;1008;47.404;8.502;2023-03-03T02:38:45;39.20;;;14.13;;
2009;SDS011;1008;47.404;8.502;2023-03-03T02:41:17;31.70;;;13.67;;
2009;SDS011;1008;47.404;8.502;2023-03-03T02:43:54;31.57;;;13.70;;
2009;SDS011;1008;47.404;8.502;2023-03-03T02:46:24;37.83;;;14.20;;
2009;SDS011;1008;47.404;8.502;2023-03-03T02:48:51;23.23;;;12.50;;
2009;SDS011;1008;47.404;8.502;2023-03-03T02:51:17;34.50;;;14.13;;
2009;SDS011;1008;47.404;8.502;2023-03-03T02:53:44;37.60;;;13.20;;
2009;SDS011;1008;47.404;8.502;2023-03-03T02:56:11;30.67;;;14.30;;
2009;SDS011;1008;47.404;8.502;2023-03-03T02:58:39;27.17;;;13.90;;
2009;SDS011;1008;47.404;8.502;2023-03-03T03:01:06;37.37;;;13.30;;
2009;SDS011;1008;47.404;8.502;2023-03-03T03:03:33;33.23;;;15.07;;
2009;SDS011;1008;47.404;8.502;2023-03-03T03:06:00;34.80;;;15.97;;
2009;SDS011;1008;47.404;8.502;2023-03-03T03:08:27;34.10;;;15.27;;
2009;SDS011;1008;47.404;8.502;2023-03-03T03:10:54;30.83;;;13.00;;
2009;SDS011;1008;47.404;8.502;2023-03-03T03:13:21;29.30;;;12.87;;
2009;SDS011;1008;47.404;8.502;2023-03-03T03:15:50;36.97;;;14.30;;
2009;SDS011;1008;47.404;8.502;2023-03-03T03:18:17;32.50;;;13.40;;
2009;SDS011;1008;47.404;8.502;2023-03-03T03:20:44;34.80;;;14.87;;
2009;SDS011;1008;47.404;8.502;2023-03-03T03:23:11;32.57;;;14.43;;
2009;SDS011;1008;47.404;8.502;2023-03-03T03:25:39;26.67;;;12.50;;
2009;SDS011;1008;47.404;8.502;2023-03-03T03:28:09;39.87;;;13.63;;
2009;SDS011;1008;47.404;8.502;2023-03-03T03:30:36;33.07;;;15.10;;
2009;SDS011;1008;47.404;8.502;2023-03-03T03:33:05;36.67;;;14.80;;
2009;SDS011;1008;47.404;8.502;2023-03-03T03:35:32;35.93;;;13.50;;
2009;SDS011;1008;47.404;8.502;2023-03-03T03:38:00;40.47;;;15.00;;
2009;SDS011;1008;47.404;8.502;2023-03-03T03:40:27;35.40;;;11.87;;
2009;SDS011;1008;47.404;8.502;2023-03-03T03:42:54;33.63;;;14.97;;
2009;SDS011;1008;47.404;8.502;2023-03-03T03:45:21;32.87;;;15.03;;
2009;SDS011;1008;47.404;8.502;2023-03-03T03:47:47;36.37;;;14.17;;
2009;SDS011;1008;47.404;8.502;2023-03-03T03:50:16;39.90;;;14.97;;
2009;SDS011;1008;47.404;8.502;2023-03-03T03:52:43;33.77;;;13.63;;
2009;SDS011;1008;47.404;8.502;2023-03-03T03:55:10;34.10;;;13.93;;
2009;SDS011;1008;47.404;8.502;2023-03-03T03:57:37;34.43;;;14.30;;
2009;SDS011;1008;47.404;8.502;2023-03-03T04:00:04;43.70;;;14.50;;
2009;SDS011;1008;47.404;8.502;2023-03-03T04:02:32;32.43;;;14.77;;
2009;SDS011;1008;47.404;8.502;2023-03-03T04:04:59;39.80;;;15.93;;
2009;SDS011;1008;47.404;8.502;2023-03-03T04:07:28;34.67;;;13.47;;
2009;SDS011;1008;47.404;8.502;2023-03-03T04:09:55;38.03;;;13.10;;
2009;SDS011;1008;47.404;8.502;2023-03-03T04:12:21;42.33;;;14.37;;
2009;SDS011;1008;47.404;8.502;2023-03-03T04:14:48;32.10;;;14.40;;
2009;SDS011;1008;47.404;8.502;2023-03-03T04:17:15;35.37;;;15.40;;
2009;SDS011;1008;47.404;8.502;2023-03-03T04:19:43;34.40;;;14.13;;
2009;SDS011;1008;47.404;8.502;2023-03-03T04:22:10;35.40;;;15.27;;
2009;SDS011;1008;47.404;8.502;2023-03-03T04:24:40;35.13;;;12.87;;
2009;SDS011;1008;47.404;8.502;2023-03-03T04:27:06;28.83;;;14.00;;
2009;SDS011;1008;47.404;8.502;2023-03-03T04:29:33;33.90;;;13.20;;
2009;SDS011;1008;47.404;8.502;2023-03-03T04:32:00;31.70;;;13.17;;
2009;SDS011;1008;47.404;8.502;2023-03-03T04:34:27;39.17;;;13.47;;
2009;SDS011;1008;47.404;8.502;2023-03-03T04:36:54;38.10;;;14.60;;
2009;SDS011;1008;47.404;8.502;2023-03-03T04:39:21;34.50;;;13.80;;
2009;SDS011;1008;47.404;8.502;2023-03-03T04:41:49;38.30;;;14.37;;
2009;SDS011;1008;47.404;8.502;2023-03-03T04:44:15;39.53;;;13.50;;
2009;SDS011;1008;47.404;8.502;2023-03-03T04:46:42;31.20;;;12.90;;
2009;SDS011;1008;47.404;8.502;2023-03-03T04:49:09;34.70;;;15.60;;
2009;SDS011;1008;47.404;8.502;2023-03-03T04:51:36;37.50;;;13.63;;
2009;SDS011;1008;47.404;8.502;2023-03-03T04:54:03;30.90;;;14.57;;
2009;SDS011;1008;47.404;8.502;2023-03-03T04:56:30;30.97;;;14.33;;
2009;SDS011;1008;47.404;8.502;2023-03-03T04:58:58;36.23;;;13.93;;
2009;SDS011;1008;47.404;8.502;2023-03-03T05:01:25;42.67;;;18.20;;
2009;SDS011;1008;47.404;8.502;2023-03-03T05:03:51;36.13;;;14.03;;
2009;SDS011;1008;47.404;8.502;2023-03-03T05:06:18;36.13;;;13.93;;
2009;SDS011;1008;47.404;8.502;2023-03-03T05:08:45;39.27;;;14.37;;
2009;SDS011;1008;47.404;8.502;2023-03-03T05:11:12;36.83;;;16.80;;
2009;SDS011;1008;47.404;8.502;2023-03-03T05:13:38;37.83;;;14.17;;
2009;SDS011;1008;47.404;8.502;2023-03-03T05:16:07;41.60;;;16.60;;
2009;SDS011;1008;47.404;8.502;2023-03-03T05:18:34;33.73;;;14.67;;
2009;SDS011;1008;47.404;8.502;2023-03-03T05:21:01;31.33;;;14.97;;
2009;SDS011;1008;47.404;8.502;2023-03-03T05:23:28;35.20;;;13.33;;
2009;SDS011;1008;47.404;8.502;2023-03-03T05:25:55;33.53;;;13.87;;
2009;SDS011;1008;47.404;8.502;2023-03-03T05:28:22;48.30;;;13.83;;
2009;SDS011;1008;47.404;8.502;2023-03-03T05:30:49;39.60;;;15.20;;
2009;SDS011;1008;47.404;8.502;2023-03-03T05:33:17;36.97;;;14.00;;
2009;SDS011;1008;47.404;8.502;2023-03-03T05:35:44;37.40;;;13.57;;
2009;SDS011;1008;47.404;8.502;2023-03-03T05:38:11;29.67;;;13.33;;
2009;SDS011;1008;47.404;8.502;2023-03-03T05:40:38;32.43;;;13.23;;
2009;SDS011;1008;47.404;8.502;2023-03-03T05:43:05;31.03;;;13.20;;
2009;SDS011;1008;47.404;8.502;2023-03-03T05:45:32;36.70;;;13.90;;
2009;SDS011;1008;47.404;8.502;2023-03-03T05:47:59;32.17;;;13.17;;
2009;SDS011;1008;47.404;8.502;2023-03-03T05:50:28;35.30;;;14.73;;
2009;SDS011;1008;47.404;8.502;2023-03-03T05:53:02;35.07;;;16.27;;
2009;SDS011;1008;47.404;8.502;2023-03-03T05:55:29;36.13;;;13.57;;
2009;SDS011;1008;47.404;8.502;2023-03-03T05:57:56;31.10;;;15.00;;
2009;SDS011;1008;47.404;8.502;2023-03-03T06:00:22;32.60;;;14.83;;
2009;SDS011;1008;47.404;8.502;2023-03-03T06:02:49;26.97;;;12.83;;
2009;SDS011;1008;47.404;8.502;2023-03-03T06:05:16;37.87;;;15.30;;
2009;SDS011;1008;47.404;8.502;2023-03-03T06:07:44;42.43;;;14.90;;
2009;SDS011;1008;47.404;8.502;2023-03-03T06:10:11;39.87;;;15.43;;
2009;SDS011;1008;47.404;8.502;2023-03-03T06:12:38;37.47;;;16.63;;
2009;SDS011;1008;47.404;8.502;2023-03-03T06:15:06;37.63;;;14.60;;
2009;SDS011;1008;47.404;8.502;2023-03-03T06:17:34;34.00;;;14.63;;
2009;SDS011;1008;47.404;8.502;2023-03-03T06:20:01;46.37;;;14.10;;
2009;SDS011;1008;47.404;8.502;2023-03-03T06:22:28;33.23;;;14.00;;
2009;SDS011;1008;47.404;8.502;2023-03-03T06:24:57;38.07;;;16.97;;
2009;SDS011;1008;47.404;8.502;2023-03-03T06:27:23;35.73;;;16.00;;
2009;SDS011;1008;47.404;8.502;2023-03-03T06:29:50;35.00;;;14.20;;
2009;SDS011;1008;47.404;8.502;2023-03-03T06:32:17;33.97;;;15.47;;
2009;SDS011;1008;47.404;8.502;2023-03-03T06:34:44;36.70;;;16.43;;
2009;SDS011;1008;47.404;8.502;2023-03-03T06:37:10;39.83;;;16.47;;
2009;SDS011;1008;47.404;8.502;2023-03-03T06:39:37;33.23;;;13.13;;
2009;SDS011;1008;47.404;8.502;2023-03-03T06:42:05;33.43;;;14.27;;
2009;SDS011;1008;47.404;8.502;2023-03-03T06:44:33;38.10;;;16.23;;
2009;SDS011;1008;47.404;8.502;2023-03-03T06:47:00;54.03;;;16.20;;
2009;SDS011;1008;47.404;8.502;2023-03-03T06:49:27;34.73;;;15.10;;
2009;SDS011;1008;47.404;8.502;2023-03-03T06:51:54;38.30;;;16.63;;
2009;SDS011;1008;47.404;8.502;2023-03-03T06:54:23;41.77;;;16.70;;
2009;SDS011;1008;47.404;8.502;2023-03-03T06:56:55;44.63;;;17.90;;
2009;SDS011;1008;47.404;8.502;2023-03-03T06:59:25;48.30;;;15.90;;
2009;SDS011;1008;47.404;8.502;2023-03-03T07:01:53;48.07;;;17.10;;
2009;SDS011;1008;47.404;8.502;2023-03-03T07:04:22;44.83;;;17.10;;
2009;SDS011;1008;47.404;8.502;2023-03-03T07:06:53;38.23;;;15.27;;
2009;SDS011;1008;47.404;8.502;2023-03-03T07:09:21;43.90;;;18.27;;
2009;SDS011;1008;47.404;8.502;2023-03-03T07:11:51;45.73;;;18.00;;
2009;SDS011;1008;47.404;8.502;2023-03-03T07:14:21;40.57;;;16.57;;
2009;SDS011;1008;47.404;8.502;2023-03-03T07:16:51;48.63;;;18.00;;
2009;SDS011;1008;47.404;8.502;2023-03-03T07:19:27;50.70;;;17.83;;
2009;SDS011;1008;47.404;8.502;2023-03-03T07:21:58;40.70;;;15.30;;
2009;SDS011;1008;47.404;8.502;2023-03-03T07:24:31;41.07;;;16.63;;
2009;SDS011;1008;47.404;8.502;2023-03-03T07:26:58;47.30;;;16.17;;
2009;SDS011;1008;47.404;8.502;2023-03-03T07:29:31;39.10;;;18.03;;
2009;SDS011;1008;47.404;8.502;2023-03-03T07:32:01;46.23;;;17.93;;
2009;SDS011;1008;47.404;8.502;2023-03-03T07:34:29;36.97;;;17.23;;
2009;SDS011;1008;47.404;8.502;2023-03-03T07:37:03;48.13;;;17.13;;
2009;SDS011;1008;47.404;8.502;2023-03-03T07:39:37;46.13;;;17.83;;
2009;SDS011;1008;47.404;8.502;2023-03-03T07:42:12;45.27;;;16.93;;
2009;SDS011;1008;47.404;8.502;2023-03-03T07:44:45;41.30;;;16.10;;
2009;SDS011;1008;47.404;8.502;2023-03-03T07:47:19;37.13;;;15.43;;
2009;SDS011;1008;47.404;8.502;2023-03-03T07:49:48;40.17;;;16.17;;
2009;SDS011;1008;47.404;8.502;2023-03-03T07:52:18;47.97;;;16.10;;
2009;SDS011;1008;47.404;8.502;2023-03-03T07:54:50;50.60;;;17.80;;
2009;SDS011;1008;47.404;8.502;2023-03-03T07:57:18;49.13;;;17.40;;
2009;SDS011;1008;47.404;8.502;2023-03-03T07:59:48;47.93;;;16.80;;
2009;SDS011;1008;47.404;8.502;2023-03-03T08:02:27;38.70;;;16.30;;
2009;SDS011;1008;47.404;8.502;2023-03-03T08:04:59;48.20;;;18.00;;
2009;SDS011;1008;47.404;8.502;2023-03-03T08:07:27;44.87;;;16.03;;
2009;SDS011;1008;47.404;8.502;2023-03-03T08:09:56;42.80;;;17.07;;
2009;SDS011;1008;47.404;8.502;2023-03-03T08:12:30;47.67;;;17.27;;
2009;SDS011;1008;47.404;8.502;2023-03-03T08:15:11;42.07;;;16.07;;
2009;SDS011;1008;47.404;8.502;2023-03-03T08:17:44;41.17;;;15.77;;
2009;SDS011;1008;47.404;8.502;2023-03-03T08:20:30;38.47;;;14.33;;
2009;SDS011;1008;47.404;8.502;2023-03-03T08:23:10;34.43;;;14.17;;
2009;SDS011;1008;47.404;8.502;2023-03-03T08:25:37;54.57;;;18.67;;
2009;SDS011;1008;47.404;8.502;2023-03-03T08:28:04;40.47;;;16.13;;
2009;SDS011;1008;47.404;8.502;2023-03-03T08:30:31;38.43;;;16.07;;
2009;SDS011;1008;47.404;8.502;2023-03-03T08:32:59;54.67;;;18.43;;
2009;SDS011;1008;47.404;8.502;2023-03-03T08:35:26;46.00;;;17.93;;
2009;SDS011;1008;47.404;8.502;2023-03-03T08:37:53;42.13;;;17.57;;
2009;SDS011;1008;47.404;8.502;2023-03-03T08:40:20;42.83;;;17.60;;
2009;SDS011;1008;47.404;8.502;2023-03-03T08:42:47;50.60;;;18.87;;
2009;SDS011;1008;47.404;8.502;2023-03-03T08:45:14;46.37;;;18.57;;
2009;SDS011;1008;47.404;8.502;2023-03-03T08:47:41;45.87;;;16.37;;
2009;SDS011;1008;47.404;8.502;2023-03-03T08:50:11;57.30;;;19.00;;
2009;SDS011;1008;47.404;8.502;2023-03-03T08:52:39;42.73;;;18.80;;
2009;SDS011;1008;47.404;8.502;2023-03-03T08:55:06;53.70;;;20.90;;
2009;SDS011;1008;47.404;8.502;2023-03-03T08:57:33;50.50;;;17.30;;
2009;SDS011;1008;47.404;8.502;2023-03-03T09:00:00;39.27;;;14.97;;
2009;SDS011;1008;47.404;8.502;2023-03-03T09:02:27;38.30;;;17.50;;
2009;SDS011;1008;47.404;8.502;2023-03-03T09:04:53;41.37;;;15.70;;
2009;SDS011;1008;47.404;8.502;2023-03-03T09:07:22;53.70;;;17.83;;
2009;SDS011;1008;47.404;8.502;2023-03-03T09:09:48;38.60;;;16.07;;
2009;SDS011;1008;47.404;8.502;2023-03-03T09:12:16;43.23;;;16.67;;
2009;SDS011;1008;47.404;8.502;2023-03-03T09:14:44;46.37;;;18.07;;
2009;SDS011;1008;47.404;8.502;2023-03-03T09:17:22;46.83;;;16.87;;
2009;SDS011;1008;47.404;8.502;2023-03-03T09:19:51;41.47;;;16.50;;
2009;SDS011;1008;47.404;8.502;2023-03-03T09:22:23;44.60;;;16.00;;
2009;SDS011;1008;47.404;8.502;2023-03-03T09:24:52;46.00;;;17.50;;
2009;SDS011;1008;47.404;8.502;2023-03-03T09:27:24;42.93;;;17.80;;
2009;SDS011;1008;47.404;8.502;2023-03-03T09:29:54;49.03;;;18.10;;
2009;SDS011;1008;47.404;8.502;2023-03-03T09:32:28;42.47;;;16.77;;
2009;SDS011;1008;47.404;8.502;2023-03-03T09:34:58;40.53;;;17.50;;
2009;SDS011;1008;47.404;8.502;2023-03-03T09:37:29;45.63;;;18.67;;
2009;SDS011;1008;47.404;8.502;2023-03-03T09:40:01;44.33;;;16.33;;
2009;SDS011;1008;47.404;8.502;2023-03-03T09:42:58;42.87;;;18.37;;
2009;SDS011;1008;47.404;8.502;2023-03-03T09:45:33;41.40;;;16.40;;
2009;SDS011;1008;47.404;8.502;2023-03-03T09:48:30;44.73;;;17.93;;
2009;SDS011;1008;47.404;8.502;2023-03-03T09:54:17;36.97;;;15.83;;
2009;SDS011;1008;47.404;8.502;2023-03-03T09:56:54;44.47;;;16.03;;
2009;SDS011;1008;47.404;8.502;2023-03-03T09:59:35;48.30;;;18.20;;
2009;SDS011;1008;47.404;8.502;2023-03-03T10:02:18;49.40;;;17.77;;
2009;SDS011;1008;47.404;8.502;2023-03-03T10:05:07;42.30;;;16.60;;
2009;SDS011;1008;47.404;8.502;2023-03-03T10:07:41;46.30;;;17.03;;
2009;SDS011;1008;47.404;8.502;2023-03-03T10:10:19;41.17;;;15.97;;
2009;SDS011;1008;47.404;8.502;2023-03-03T10:13:02;41.17;;;17.83;;
2009;SDS011;1008;47.404;8.502;2023-03-03T10:15:39;43.20;;;18.93;;
2009;SDS011;1008;47.404;8.502;2023-03-03T10:18:19;44.37;;;17.83;;
2009;SDS011;1008;47.404;8.502;2023-03-03T10:20:56;42.80;;;16.20;;
2009;SDS011;1008;47.404;8.502;2023-03-03T10:23:38;42.90;;;16.93;;
2009;SDS011;1008;47.404;8.502;2023-03-03T10:26:18;51.53;;;18.17;;
2009;SDS011;1008;47.404;8.502;2023-03-03T10:28:57;50.90;;;17.97;;
2009;SDS011;1008;47.404;8.502;2023-03-03T10:31:39;40.33;;;17.17;;
2009;SDS011;1008;47.404;8.502;2023-03-03T10:37:23;43.23;;;18.90;;
2009;SDS011;1008;47.404;8.502;2023-03-03T10:40:07;43.10;;;17.33;;
2009;SDS011;1008;47.404;8.502;2023-03-03T10:42:50;41.53;;;17.10;;
2009;SDS011;1008;47.404;8.502;2023-03-03T10:48:29;43.80;;;15.67;;
2009;SDS011;1008;47.404;8.502;2023-03-03T10:51:16;32.67;;;13.63;;
2009;SDS011;1008;47.404;8.502;2023-03-03T10:53:56;49.57;;;17.53;;
2009;SDS011;1008;47.404;8.502;2023-03-03T10:56:33;52.23;;;18.70;;
2009;SDS011;1008;47.404;8.502;2023-03-03T10:59:14;43.53;;;17.17;;
2009;SDS011;1008;47.404;8.502;2023-03-03T11:02:00;43.53;;;17.50;;
2009;SDS011;1008;47.404;8.502;2023-03-03T11:04:44;38.07;;;15.63;;
2009;SDS011;1008;47.404;8.502;2023-03-03T11:07:23;40.77;;;15.03;;
2009;SDS011;1008;47.404;8.502;2023-03-03T11:10:01;38.63;;;16.13;;
2009;SDS011;1008;47.404;8.502;2023-03-03T11:12:41;47.10;;;16.60;;
2009;SDS011;1008;47.404;8.502;2023-03-03T11:21:14;32.47;;;14.70;;
2009;SDS011;1008;47.404;8.502;2023-03-03T11:26:43;40.50;;;14.43;;
2009;SDS011;1008;47.404;8.502;2023-03-03T11:29:20;42.97;;;16.50;;
2009;SDS011;1008;47.404;8.502;2023-03-03T11:32:04;37.30;;;15.53;;
2009;SDS011;1008;47.404;8.502;2023-03-03T11:34:52;38.80;;;17.73;;
2009;SDS011;1008;47.404;8.502;2023-03-03T11:37:26;33.10;;;13.63;;
2009;SDS011;1008;47.404;8.502;2023-03-03T11:40:04;41.83;;;16.00;;
2009;SDS011;1008;47.404;8.502;2023-03-03T11:42:42;40.27;;;15.20;;
2009;SDS011;1008;47.404;8.502;2023-03-03T11:45:18;42.30;;;15.70;;
2009;SDS011;1008;47.404;8.502;2023-03-03T11:47:51;40.50;;;15.67;;
2009;SDS011;1008;47.404;8.502;2023-03-03T11:50:25;45.43;;;16.03;;
2009;SDS011;1008;47.404;8.502;2023-03-03T11:52:59;36.00;;;14.10;;
2009;SDS011;1008;47.404;8.502;2023-03-03T11:55:37;40.93;;;16.63;;
2009;SDS011;1008;47.404;8.502;2023-03-03T11:58:07;48.63;;;17.30;;
2009;SDS011;1008;47.404;8.502;2023-03-03T12:00:40;34.30;;;15.90;;
2009;SDS011;1008;47.404;8.502;2023-03-03T12:03:15;41.17;;;16.20;;
2009;SDS011;1008;47.404;8.502;2023-03-03T12:05:54;42.73;;;15.30;;
2009;SDS011;1008;47.404;8.502;2023-03-03T12:08:37;38.00;;;16.30;;
2009;SDS011;1008;47.404;8.502;2023-03-03T12:11:20;43.97;;;15.00;;
2009;SDS011;1008;47.404;8.502;2023-03-03T12:13:53;42.60;;;16.23;;
2009;SDS011;1008;47.404;8.502;2023-03-03T12:16:31;47.43;;;16.50;;
2009;SDS011;1008;47.404;8.502;2023-03-03T12:19:08;50.27;;;17.77;;
2009;SDS011;1008;47.404;8.502;2023-03-03T12:22:06;46.53;;;17.17;;
2009;SDS011;1008;47.404;8.502;2023-03-03T12:25:02;41.20;;;15.57;;
2009;SDS011;1008;47.404;8.502;2023-03-03T12:27:40;41.13;;;15.90;;
2009;SDS011;1008;47.404;8.502;2023-03-03T12:30:16;41.33;;;17.83;;
2009;SDS011;1008;47.404;8.502;2023-03-03T12:33:04;42.80;;;16.37;;
2009;SDS011;1008;47.404;8.502;2023-03-03T12:35:38;55.03;;;17.60;;
2009;SDS011;1008;47.404;8.502;2023-03-03T12:38:12;45.17;;;17.03;;
2009;SDS011;1008;47.404;8.502;2023-03-03T12:40:49;41.47;;;15.80;;
2009;SDS011;1008;47.404;8.502;2023-03-03T12:43:24;40.77;;;15.63;;
2009;SDS011;1008;47.404;8.502;2023-03-03T12:46:06;46.50;;;17.97;;
2009;SDS011;1008;47.404;8.502;2023-03-03T12:48:44;45.30;;;18.80;;
2009;SDS011;1008;47.404;8.502;2023-03-03T12:51:18;43.10;;;18.63;;
2009;SDS011;1008;47.404;8.502;2023-03-03T12:54:02;42.17;;;17.23;;
2009;SDS011;1008;47.404;8.502;2023-03-03T12:56:40;48.03;;;17.70;;
2009;SDS011;1008;47.404;8.502;2023-03-03T12:59:13;51.60;;;17.63;;
2009;SDS011;1008;47.404;8.502;2023-03-03T13:01:51;49.23;;;18.27;;
2009;SDS011;1008;47.404;8.502;2023-03-03T13:04:32;43.10;;;17.60;;
2009;SDS011;1008;47.404;8.502;2023-03-03T13:07:03;40.03;;;17.23;;
2009;SDS011;1008;47.404;8.502;2023-03-03T13:09:39;41.67;;;17.10;;
2009;SDS011;1008;47.404;8.502;2023-03-03T13:12:25;44.27;;;17.53;;
2009;SDS011;1008;47.404;8.502;2023-03-03T13:14:59;48.43;;;18.37;;
2009;SDS011;1008;47.404;8.502;2023-03-03T13:17:31;41.97;;;16.77;;
2009;SDS011;1008;47.404;8.502;2023-03-03T13:20:05;40.60;;;15.80;;
2009;SDS011;1008;47.404;8.502;2023-03-03T13:22:43;51.00;;;17.90;;
2009;SDS011;1008;47.404;8.502;2023-03-03T13:25:27;48.97;;;18.33;;
2009;SDS011;1008;47.404;8.502;2023-03-03T13:28:14;54.67;;;19.00;;
2009;SDS011;1008;47.404;8.502;2023-03-03T13:30:48;42.83;;;17.87;;
2009;SDS011;1008;47.404;8.502;2023-03-03T13:33:20;49.47;;;18.27;;
2009;SDS011;1008;47.404;8.502;2023-03-03T13:35:52;44.43;;;18.37;;
2009;SDS011;1008;47.404;8.502;2023-03-03T13:38:21;48.37;;;18.10;;
2009;SDS011;1008;47.404;8.502;2023-03-03T13:40:53;40.77;;;17.40;;
2009;SDS011;1008;47.404;8.502;2023-03-03T13:43:29;44.53;;;17.77;;
2009;SDS011;1008;47.404;8.502;2023-03-03T13:46:02;49.10;;;18.87;;
2009;SDS011;1008;47.404;8.502;2023-03-03T13:48:42;42.83;;;17.60;;
2009;SDS011;1008;47.404;8.502;2023-03-03T13:51:24;45.07;;;18.20;;
2009;SDS011;1008;47.404;8.502;2023-03-03T13:54:03;44.20;;;18.50;;
2009;SDS011;1008;47.404;8.502;2023-03-03T13:59:46;42.07;;;15.43;;
2009;SDS011;1008;47.404;8.502;2023-03-03T14:02:27;41.03;;;17.10;;
2009;SDS011;1008;47.404;8.502;2023-03-03T14:05:13;40.50;;;17.77;;
2009;SDS011;1008;47.404;8.502;2023-03-03T14:07:44;45.77;;;17.20;;
2009;SDS011;1008;47.404;8.502;2023-03-03T14:10:18;41.07;;;17.50;;
2009;SDS011;1008;47.404;8.502;2023-03-03T14:12:50;50.37;;;18.70;;
2009;SDS011;1008;47.404;8.502;2023-03-03T14:15:27;42.80;;;17.20;;
2009;SDS011;1008;47.404;8.502;2023-03-03T14:18:04;43.50;;;19.93;;
2009;SDS011;1008;47.404;8.502;2023-03-03T14:20:44;37.03;;;16.53;;
2009;SDS011;1008;47.404;8.502;2023-03-03T14:23:14;44.67;;;18.93;;
2009;SDS011;1008;47.404;8.502;2023-03-03T14:25:49;43.00;;;17.77;;
2009;SDS011;1008;47.404;8.502;2023-03-03T14:28:24;49.60;;;17.77;;
2009;SDS011;1008;47.404;8.502;2023-03-03T14:30:55;47.10;;;17.33;;
2009;SDS011;1008;47.404;8.502;2023-03-03T14:33:27;40.30;;;17.50;;
2009;SDS011;1008;47.404;8.502;2023-03-03T14:36:00;49.60;;;19.27;;
2009;SDS011;1008;47.404;8.502;2023-03-03T14:38:42;36.90;;;16.37;;
2009;SDS011;1008;47.404;8.502;2023-03-03T14:41:17;37.67;;;17.47;;
2009;SDS011;1008;47.404;8.502;2023-03-03T14:43:45;50.90;;;19.03;;
2009;SDS011;1008;47.404;8.502;2023-03-03T14:46:34;46.17;;;19.97;;
2009;SDS011;1008;47.404;8.502;2023-03-03T14:49:04;43.20;;;17.10;;
2009;SDS011;1008;47.404;8.502;2023-03-03T14:51:40;48.20;;;18.57;;
2009;SDS011;1008;47.404;8.502;2023-03-03T14:54:13;40.57;;;16.80;;
2009;SDS011;1008;47.404;8.502;2023-03-03T14:57:02;49.13;;;17.73;;
2009;SDS011;1008;47.404;8.502;2023-03-03T14:59:36;54.60;;;18.93;;
2009;SDS011;1008;47.404;8.502;2023-03-03T15:02:24;45.13;;;17.57;;
2009;SDS011;1008;47.404;8.502;2023-03-03T15:05:07;43.40;;;19.13;;
2009;SDS011;1008;47.404;8.502;2023-03-03T15:07:41;37.70;;;17.40;;
2009;SDS011;1008;47.404;8.502;2023-03-03T15:10:09;50.77;;;20.53;;
2009;SDS011;1008;47.404;8.502;2023-03-03T15:12:38;40.63;;;16.00;;
2009;SDS011;1008;47.404;8.502;2023-03-03T15:15:12;44.80;;;16.20;;
2009;SDS011;1008;47.404;8.502;2023-03-03T15:17:52;44.97;;;17.90;;
2009;SDS011;1008;47.404;8.502;2023-03-03T15:20:23;36.17;;;17.00;;
2009;SDS011;1008;47.404;8.502;2023-03-03T15:23:08;39.73;;;18.17;;
2009;SDS011;1008;47.404;8.502;2023-03-03T15:25:46;39.93;;;17.07;;
2009;SDS011;1008;47.404;8.502;2023-03-03T15:28:21;36.17;;;16.97;;
2009;SDS011;1008;47.404;8.502;2023-03-03T15:31:06;41.03;;;18.33;;
2009;SDS011;1008;47.404;8.502;2023-03-03T15:33:44;39.30;;;16.33;;
2009;SDS011;1008;47.404;8.502;2023-03-03T15:36:16;40.53;;;17.30;;
2009;SDS011;1008;47.404;8.502;2023-03-03T15:38:55;45.20;;;18.73;;
2009;SDS011;1008;47.404;8.502;2023-03-03T15:41:32;43.07;;;16.97;;